createdAt,value
2023-12-28T00:00:39.025Z,5.20
2023-12-28T00:03:07.778Z,4.90
2023-12-28T00:05:37.337Z,4.80
2023-12-28T00:08:05.638Z,5.00
2023-12-28T00:10:33.798Z,4.60
2023-12-28T00:13:01.972Z,4.50
2023-12-28T00:15:30.055Z,4.60
2023-12-28T00:17:58.404Z,4.60
2023-12-28T00:20:26.616Z,4.50
2023-12-28T00:22:56.028Z,5.10
2023-12-28T00:25:24.230Z,4.70
2023-12-28T00:27:52.433Z,4.70
2023-12-28T00:30:20.658Z,4.90
2023-12-28T00:32:48.748Z,4.80
2023-12-28T00:35:16.845Z,5.10
2023-12-28T00:37:44.873Z,5.10
2023-12-28T00:40:14.632Z,5.20
2023-12-28T00:42:42.903Z,5.40
2023-12-28T00:45:11.707Z,5.40
2023-12-28T00:47:40.038Z,5.60
2023-12-28T00:50:08.904Z,5.50
2023-12-28T00:52:37.074Z,5.50
2023-12-28T00:55:05.790Z,5.50
2023-12-28T00:57:35.341Z,5.60
2023-12-28T01:00:02.679Z,5.50
2023-12-28T01:02:30.813Z,5.50
2023-12-28T01:04:58.953Z,5.50
2023-12-28T01:07:27.057Z,5.70
2023-12-28T01:09:55.197Z,5.40
2023-12-28T01:12:23.400Z,5.40
2023-12-28T01:14:52.848Z,5.10
2023-12-28T01:17:21.104Z,5.50
2023-12-28T01:19:49.489Z,4.80
2023-12-28T01:22:17.668Z,5.10
2023-12-28T01:24:50.677Z,4.70
2023-12-28T01:27:19.326Z,4.70
2023-12-28T01:29:47.399Z,4.90
2023-12-28T01:32:16.874Z,4.50
2023-12-28T01:34:46.239Z,4.50
2023-12-28T01:37:14.405Z,4.30
2023-12-28T01:39:42.580Z,4.40
2023-12-28T01:42:12.025Z,4.30
2023-12-28T01:44:40.182Z,4.20
2023-12-28T01:47:08.977Z,4.00
2023-12-28T01:49:38.823Z,3.80
2023-12-28T01:52:08.456Z,3.40
2023-12-28T01:54:37.813Z,3.40
2023-12-28T01:57:06.616Z,3.40
2023-12-28T01:59:35.146Z,3.50
2023-12-28T02:02:03.317Z,3.40
2023-12-28T02:04:31.951Z,3.90
2023-12-28T02:07:02.709Z,3.30
2023-12-28T02:09:31.105Z,3.30
2023-12-28T02:11:59.226Z,3.20
2023-12-28T02:14:27.508Z,3.10
2023-12-28T02:17:02.865Z,2.90
2023-12-28T02:19:42.038Z,2.90
2023-12-28T02:22:12.212Z,2.80
2023-12-28T02:25:06.722Z,3.00
2023-12-28T02:27:35.839Z,2.80
2023-12-28T02:30:04.149Z,3.10
2023-12-28T02:32:42.211Z,3.00
2023-12-28T02:35:20.406Z,3.30
2023-12-28T02:37:53.450Z,2.80
2023-12-28T02:40:24.305Z,2.70
2023-12-28T02:42:52.597Z,2.60
2023-12-28T02:45:21.109Z,2.50
2023-12-28T02:47:49.230Z,2.40
2023-12-28T02:50:17.408Z,2.60
2023-12-28T02:52:45.412Z,2.60
2023-12-28T02:55:13.516Z,2.50
2023-12-28T02:57:43.090Z,2.60
2023-12-28T03:00:12.030Z,2.70
2023-12-28T03:02:40.178Z,2.50
2023-12-28T03:05:09.091Z,3.00
2023-12-28T03:07:37.906Z,2.40
2023-12-28T03:10:06.898Z,2.50
2023-12-28T03:12:35.336Z,2.40
2023-12-28T03:15:05.445Z,2.60
2023-12-28T03:17:34.127Z,2.30
2023-12-28T03:20:02.757Z,2.40
2023-12-28T03:22:30.838Z,2.50
2023-12-28T03:25:01.794Z,2.50
2023-12-28T03:27:29.948Z,2.80
2023-12-28T03:29:57.989Z,2.50
2023-12-28T03:32:27.484Z,2.50
2023-12-28T03:34:55.657Z,2.50
2023-12-28T03:37:23.670Z,2.50
2023-12-28T03:39:51.873Z,3.10
2023-12-28T03:42:20.123Z,3.80
2023-12-28T03:44:48.199Z,2.40
2023-12-28T03:47:16.285Z,2.70
2023-12-28T03:49:45.805Z,2.70
2023-12-28T03:52:14.042Z,2.70
2023-12-28T03:54:42.383Z,2.60
2023-12-28T03:57:11.584Z,2.60
2023-12-28T04:02:08.507Z,2.60
2023-12-28T04:04:36.671Z,2.60
2023-12-28T04:07:08.519Z,2.60
2023-12-28T04:09:36.922Z,2.60
2023-12-28T04:12:05.386Z,2.60
2023-12-28T04:14:33.465Z,2.60
2023-12-28T04:17:01.615Z,2.80
2023-12-28T04:19:29.790Z,2.70
2023-12-28T04:21:58.055Z,2.70
2023-12-28T04:24:27.493Z,2.60
2023-12-28T04:26:55.714Z,3.20
2023-12-28T04:29:23.768Z,2.70
2023-12-28T04:31:51.890Z,2.80
2023-12-28T04:34:20.052Z,2.70
2023-12-28T04:36:49.996Z,2.50
2023-12-28T04:39:18.911Z,2.50
2023-12-28T04:41:48.406Z,2.90
2023-12-28T04:44:16.439Z,3.00
2023-12-28T04:46:45.482Z,2.70
2023-12-28T04:49:13.933Z,3.50
2023-12-28T04:51:45.592Z,2.90
2023-12-28T04:54:14.076Z,3.20
2023-12-28T04:56:42.346Z,2.60
2023-12-28T04:59:11.820Z,3.20
2023-12-28T05:01:43.470Z,3.50
2023-12-28T05:04:14.415Z,3.30
2023-12-28T05:06:44.610Z,4.50
2023-12-28T05:09:12.766Z,3.90
2023-12-28T05:11:40.811Z,3.70
2023-12-28T05:14:10.783Z,3.90
2023-12-28T05:16:40.727Z,3.60
2023-12-28T05:19:10.177Z,3.70
2023-12-28T05:21:38.972Z,3.70
2023-12-28T05:24:07.568Z,5.20
2023-12-28T05:26:35.637Z,3.90
2023-12-28T05:29:03.755Z,3.90
2023-12-28T05:31:32.019Z,4.00
2023-12-28T05:34:01.669Z,5.20
2023-12-28T05:36:29.940Z,4.40
2023-12-28T05:38:58.013Z,4.60
2023-12-28T05:41:26.082Z,4.70
2023-12-28T05:43:54.226Z,4.50
2023-12-28T05:46:22.776Z,5.00
2023-12-28T08:43:55.045Z,7.90
2023-12-28T08:46:25.772Z,7.90
2023-12-28T08:48:53.981Z,7.90
